Time;durP1;ratioP1;P1;durP2;ratioP2;P2;SDS_P1;SDS_P2;PMS_P1;PMS_P2;Temp;Humidity;BMP_temperature;BMP_pressure;BME280_temperature;BME280_humidity;BME280_pressure;Samples;Min_cycle;Max_cycle;Signal;HPM_P1;HPM_P2
2021/10/04 00:01:26;;;;;;;2.75;2.65;;;;;;;;;;5027644;28;20073;-57
2021/10/04 00:03:53;;;;;;;2.75;2.10;;;;;;;;;;5028857;28;20506;-57
2021/10/04 00:06:20;;;;;;;2.75;2.53;;;;;;;;;;5025723;28;20098;-57
2021/10/04 00:08:46;;;;;;;3.95;2.97;;;;;;;;;;5028342;28;20041;-59
2021/10/04 00:11:14;;;;;;;2.17;2.08;;;;;;;;;;5027831;28;20092;-57
2021/10/04 00:13:41;;;;;;;2.65;2.53;;;;;;;;;;5026896;28;20030;-58
2021/10/04 00:16:08;;;;;;;2.22;1.75;;;;;;;;;;5026675;28;20440;-55
2021/10/04 00:18:35;;;;;;;1.98;1.88;;;;;;;;;;5025801;28;20041;-59
2021/10/04 00:21:01;;;;;;;2.70;2.53;;;;;;;;;;5028214;28;20037;-58
2021/10/04 00:23:28;;;;;;;1.88;1.77;;;;;;;;;;5024941;28;20528;-58
2021/10/04 00:25:55;;;;;;;5.63;2.53;;;;;;;;;;5025668;28;20096;-58
2021/10/04 00:28:22;;;;;;;2.75;2.13;;;;;;;;;;5027671;28;20436;-57
2021/10/04 00:30:48;;;;;;;2.88;2.78;;;;;;;;;;5026207;28;20489;-58
2021/10/04 00:33:15;;;;;;;2.85;2.63;;;;;;;;;;5014240;28;20073;-57
2021/10/04 00:35:42;;;;;;;3.10;2.80;;;;;;;;;;5024006;28;20044;-58
2021/10/04 00:38:09;;;;;;;3.30;3.10;;;;;;;;;;5027465;28;20038;-58
2021/10/04 00:40:35;;;;;;;3.10;3.00;;;;;;;;;;5029328;28;20057;-59
2021/10/04 00:43:02;;;;;;;2.72;2.50;;;;;;;;;;5026386;28;20038;-57
2021/10/04 00:45:29;;;;;;;2.83;2.70;;;;;;;;;;5029026;28;20046;-58
2021/10/04 00:47:57;;;;;;;5.50;2.88;;;;;;;;;;5027266;28;20064;-58
2021/10/04 00:50:25;;;;;;;2.95;2.47;;;;;;;;;;5031276;28;20065;-58
2021/10/04 00:52:52;;;;;;;4.40;2.58;;;;;;;;;;5031970;28;20077;-59
2021/10/04 00:55:19;;;;;;;3.80;2.00;;;;;;;;;;5031204;28;20045;-54
2021/10/04 00:57:46;;;;;;;3.28;3.13;;;;;;;;;;5028465;28;20091;-58
2021/10/04 01:00:15;;;;;;;3.38;2.45;;;;;;;;;;5031297;28;20121;-59
2021/10/04 01:02:42;;;;;;;3.05;2.85;;;;;;;;;;5032074;28;20053;-59
2021/10/04 01:05:09;;;;;;;3.97;2.58;;;;;;;;;;5030396;28;20072;-58
2021/10/04 01:07:36;;;;;;;2.97;2.70;;;;;;;;;;5030286;28;20042;-59
2021/10/04 01:10:04;;;;;;;2.33;2.08;;;;;;;;;;5014760;28;20077;-54
2021/10/04 01:12:30;;;;;;;2.78;2.08;;;;;;;;;;5030959;28;20029;-58
2021/10/04 01:14:57;;;;;;;2.53;1.98;;;;;;;;;;5030513;28;20041;-58
2021/10/04 01:17:24;;;;;;;2.95;2.85;;;;;;;;;;5031730;28;20486;-58
2021/10/04 01:19:51;;;;;;;2.20;2.08;;;;;;;;;;5030614;28;20071;-58
2021/10/04 01:22:17;;;;;;;2.60;2.50;;;;;;;;;;5030711;28;20069;-58
2021/10/04 01:24:44;;;;;;;3.03;2.80;;;;;;;;;;5030892;28;20551;-57
2021/10/04 01:27:11;;;;;;;2.13;2.03;;;;;;;;;;5027795;28;20091;-59
2021/10/04 01:29:38;;;;;;;2.53;2.42;;;;;;;;;;5028395;28;20045;-59
2021/10/04 01:32:05;;;;;;;2.15;2.05;;;;;;;;;;5028239;28;20487;-59
2021/10/04 01:34:32;;;;;;;2.45;2.13;;;;;;;;;;5029522;28;20088;-59
2021/10/04 01:36:59;;;;;;;2.90;2.67;;;;;;;;;;5030740;28;20065;-59
2021/10/04 01:39:25;;;;;;;2.20;2.10;;;;;;;;;;5030061;28;20115;-58
2021/10/04 01:41:52;;;;;;;2.20;2.10;;;;;;;;;;5031417;28;20058;-58
2021/10/04 01:44:20;;;;;;;2.63;2.53;;;;;;;;;;5028931;28;20056;-58
2021/10/04 01:46:46;;;;;;;1.58;1.55;;;;;;;;;;5030094;28;20065;-58
2021/10/04 01:49:13;;;;;;;2.85;1.63;;;;;;;;;;5030730;28;20037;-58
2021/10/04 01:51:40;;;;;;;2.33;2.22;;;;;;;;;;5028581;28;20095;-58
2021/10/04 01:54:07;;;;;;;2.45;2.08;;;;;;;;;;5030938;28;20535;-54
2021/10/04 01:56:34;;;;;;;2.03;1.77;;;;;;;;;;5029283;28;20072;-58
2021/10/04 01:59:00;;;;;;;2.38;1.85;;;;;;;;;;5028028;28;20049;-58
2021/10/04 02:01:27;;;;;;;2.03;2.03;;;;;;;;;;5030503;28;20079;-58
2021/10/04 02:03:56;;;;;;;3.22;1.83;;;;;;;;;;5029909;28;20033;-58
2021/10/04 02:06:23;;;;;;;2.33;2.13;;;;;;;;;;5030561;28;20045;-57
2021/10/04 02:08:49;;;;;;;2.00;1.90;;;;;;;;;;5029165;28;20050;-59
2021/10/04 02:11:16;;;;;;;2.15;2.05;;;;;;;;;;5028540;28;20071;-59
2021/10/04 02:13:43;;;;;;;2.53;2.33;;;;;;;;;;5030606;28;20513;-57
2021/10/04 02:16:10;;;;;;;2.35;1.83;;;;;;;;;;5029765;28;20029;-58
2021/10/04 02:18:37;;;;;;;1.73;1.65;;;;;;;;;;5028381;28;20042;-56
2021/10/04 02:21:04;;;;;;;2.33;1.90;;;;;;;;;;5029737;28;20041;-58
2021/10/04 02:23:30;;;;;;;2.00;1.73;;;;;;;;;;5029454;28;20041;-59
2021/10/04 02:25:57;;;;;;;2.15;2.00;;;;;;;;;;5030859;28;20539;-54
2021/10/04 02:28:24;;;;;;;4.10;2.28;;;;;;;;;;5027300;28;20029;-58
2021/10/04 02:30:51;;;;;;;2.22;2.03;;;;;;;;;;5030195;28;20042;-59
2021/10/04 02:33:18;;;;;;;1.83;1.50;;;;;;;;;;5028794;28;20034;-58
2021/10/04 02:35:45;;;;;;;3.95;1.77;;;;;;;;;;5028753;28;20077;-58
2021/10/04 02:38:12;;;;;;;2.65;2.47;;;;;;;;;;5029938;28;20081;-59
2021/10/04 02:40:39;;;;;;;5.88;2.75;;;;;;;;;;5025905;28;20103;-58
2021/10/04 02:43:06;;;;;;;2.03;1.85;;;;;;;;;;5029742;28;20116;-57
2021/10/04 02:45:33;;;;;;;2.92;2.25;;;;;;;;;;5030480;28;20049;-58
2021/10/04 02:48:01;;;;;;;2.45;2.35;;;;;;;;;;5027775;28;20042;-59
2021/10/04 02:50:28;;;;;;;1.88;1.77;;;;;;;;;;5029680;28;20080;-58
2021/10/04 02:52:55;;;;;;;2.47;2.38;;;;;;;;;;5026834;28;20037;-58
2021/10/04 02:55:22;;;;;;;2.30;2.20;;;;;;;;;;5028407;28;20041;-58
2021/10/04 02:57:49;;;;;;;3.28;2.33;;;;;;;;;;5029811;28;20064;-57
2021/10/04 03:00:30;;;;;;;1.83;1.73;;;;;;;;;;5021724;28;20045;-58
2021/10/04 03:02:57;;;;;;;3.53;2.30;;;;;;;;;;5027419;28;20041;-59
2021/10/04 03:05:24;;;;;;;2.58;2.10;;;;;;;;;;5028572;28;20142;-57
2021/10/04 03:07:51;;;;;;;3.83;1.95;;;;;;;;;;5028858;28;20041;-58
2021/10/04 03:10:18;;;;;;;2.47;2.30;;;;;;;;;;5029536;28;20080;-56
2021/10/04 03:12:45;;;;;;;2.13;2.00;;;;;;;;;;5025531;28;20037;-60
2021/10/04 03:15:11;;;;;;;1.95;1.85;;;;;;;;;;5026804;28;20046;-59
2021/10/04 03:17:38;;;;;;;1.70;1.60;;;;;;;;;;5027888;28;20116;-58
2021/10/04 03:20:05;;;;;;;2.88;1.70;;;;;;;;;;5027445;28;20042;-59
2021/10/04 03:22:32;;;;;;;2.25;2.15;;;;;;;;;;5029110;28;20030;-59
2021/10/04 03:25:00;;;;;;;2.50;2.35;;;;;;;;;;5026588;28;20466;-56
2021/10/04 03:27:28;;;;;;;2.85;2.47;;;;;;;;;;5027067;28;20042;-58
2021/10/04 03:29:55;;;;;;;5.13;2.00;;;;;;;;;;5028954;28;20045;-58
2021/10/04 03:32:22;;;;;;;4.00;2.10;;;;;;;;;;5020052;28;20076;-57
2021/10/04 03:34:49;;;;;;;2.55;1.80;;;;;;;;;;5015527;28;20498;-58
2021/10/04 03:37:16;;;;;;;2.25;2.08;;;;;;;;;;5025310;28;20044;-59
2021/10/04 03:39:44;;;;;;;2.15;1.98;;;;;;;;;;5027704;28;20072;-58
2021/10/04 03:42:11;;;;;;;2.13;1.85;;;;;;;;;;5029069;28;20108;-58
2021/10/04 03:44:38;;;;;;;2.20;2.00;;;;;;;;;;5024755;28;20045;-59
2021/10/04 03:47:05;;;;;;;4.13;2.88;;;;;;;;;;5029433;28;20536;-57
2021/10/04 03:49:32;;;;;;;2.67;1.80;;;;;;;;;;5028010;28;20346;-59
2021/10/04 03:51:59;;;;;;;3.08;2.75;;;;;;;;;;5028796;28;20055;-58
2021/10/04 03:54:25;;;;;;;3.58;2.25;;;;;;;;;;5028685;28;20037;-58
2021/10/04 03:56:52;;;;;;;1.90;1.80;;;;;;;;;;5026653;28;20522;-58
2021/10/04 03:59:19;;;;;;;2.25;2.00;;;;;;;;;;5029446;28;20095;-58
2021/10/04 04:01:46;;;;;;;2.22;1.98;;;;;;;;;;5028525;28;20045;-57
2021/10/04 04:04:13;;;;;;;2.03;1.92;;;;;;;;;;5029255;28;20127;-55
2021/10/04 04:06:41;;;;;;;2.58;2.38;;;;;;;;;;5027624;28;20048;-59
2021/10/04 04:09:07;;;;;;;2.67;2.47;;;;;;;;;;5026595;28;20132;-57
2021/10/04 04:11:34;;;;;;;3.10;2.00;;;;;;;;;;5027273;28;20049;-58
2021/10/04 04:14:02;;;;;;;2.60;2.50;;;;;;;;;;5028104;28;20104;-59
2021/10/04 04:16:28;;;;;;;4.45;2.35;;;;;;;;;;5028346;28;20041;-58
2021/10/04 04:18:55;;;;;;;2.85;2.75;;;;;;;;;;5027434;28;20038;-59
2021/10/04 04:21:22;;;;;;;2.55;2.35;;;;;;;;;;5027806;28;20387;-58
2021/10/04 04:24:09;;;;;;;3.08;2.90;;;;;;;;;;5030432;28;20501;-59
2021/10/04 04:26:36;;;;;;;2.95;2.20;;;;;;;;;;5032189;28;20080;-59
2021/10/04 04:29:03;;;;;;;2.92;2.63;;;;;;;;;;5031148;28;20057;-58
2021/10/04 04:31:29;;;;;;;2.08;1.90;;;;;;;;;;5032451;28;20037;-56
2021/10/04 04:33:56;;;;;;;4.82;2.78;;;;;;;;;;5029841;28;20052;-58
2021/10/04 04:36:23;;;;;;;4.38;3.33;;;;;;;;;;5019229;28;20057;-59
2021/10/04 04:38:50;;;;;;;2.20;2.10;;;;;;;;;;5031642;28;20104;-58
2021/10/04 04:41:16;;;;;;;3.90;2.13;;;;;;;;;;5030839;28;20524;-58
2021/10/04 04:43:43;;;;;;;1.98;1.88;;;;;;;;;;5032128;28;20129;-58
2021/10/04 04:46:11;;;;;;;2.75;2.55;;;;;;;;;;5030174;28;20501;-58
2021/10/04 04:48:37;;;;;;;2.50;2.17;;;;;;;;;;5030573;28;20117;-59
2021/10/04 04:51:04;;;;;;;2.28;2.13;;;;;;;;;;5032051;28;20079;-59
2021/10/04 04:53:31;;;;;;;2.80;1.92;;;;;;;;;;5028870;28;20026;-56
2021/10/04 04:55:57;;;;;;;2.97;2.00;;;;;;;;;;5032228;28;20143;-59
2021/10/04 04:58:24;;;;;;;2.53;1.83;;;;;;;;;;5032446;28;20133;-59
2021/10/04 05:00:51;;;;;;;2.17;2.05;;;;;;;;;;5030436;28;20525;-57
2021/10/04 05:03:18;;;;;;;6.72;2.30;;;;;;;;;;5032037;28;20117;-57
2021/10/04 05:05:45;;;;;;;2.38;2.20;;;;;;;;;;5029707;28;20049;-59
2021/10/04 05:08:11;;;;;;;3.53;1.85;;;;;;;;;;5031963;28;20470;-58
2021/10/04 05:10:38;;;;;;;3.63;2.17;;;;;;;;;;5032113;28;20053;-58
2021/10/04 05:13:05;;;;;;;2.88;2.53;;;;;;;;;;5030393;28;20115;-58
2021/10/04 05:15:35;;;;;;;2.38;2.28;;;;;;;;;;5028112;28;20490;-59
2021/10/04 05:18:02;;;;;;;2.05;1.95;;;;;;;;;;5029511;28;20360;-59
2021/10/04 05:20:29;;;;;;;3.33;2.58;;;;;;;;;;5029333;28;20041;-57
2021/10/04 05:22:56;;;;;;;4.85;2.70;;;;;;;;;;5031183;28;20103;-57
2021/10/04 05:25:22;;;;;;;2.38;2.08;;;;;;;;;;5031616;28;20060;-62
2021/10/04 05:27:49;;;;;;;2.38;2.28;;;;;;;;;;5032195;28;20095;-63
2021/10/04 05:30:17;;;;;;;2.30;2.10;;;;;;;;;;5028297;28;20044;-64
2021/10/04 05:32:43;;;;;;;2.42;2.22;;;;;;;;;;5031198;28;20068;-61
2021/10/04 05:35:11;;;;;;;3.45;2.58;;;;;;;;;;5030263;28;20065;-62
2021/10/04 05:37:38;;;;;;;2.05;1.95;;;;;;;;;;5028948;28;20476;-63
2021/10/04 05:40:05;;;;;;;2.90;2.35;;;;;;;;;;5029448;28;20075;-63
2021/10/04 05:42:32;;;;;;;3.15;2.00;;;;;;;;;;5028109;28;20477;-61
2021/10/04 05:44:59;;;;;;;2.28;2.17;;;;;;;;;;5029970;28;20092;-62
2021/10/04 05:47:26;;;;;;;1.90;1.67;;;;;;;;;;5020252;28;20124;-63
2021/10/04 05:49:53;;;;;;;2.97;2.78;;;;;;;;;;5030548;28;20133;-63
2021/10/04 05:52:19;;;;;;;6.32;2.55;;;;;;;;;;5030383;28;20869;-63
2021/10/04 05:54:46;;;;;;;4.78;2.28;;;;;;;;;;5031099;28;20516;-63
2021/10/04 05:57:13;;;;;;;1.95;1.88;;;;;;;;;;5028116;28;20067;-63
2021/10/04 05:59:40;;;;;;;3.35;3.05;;;;;;;;;;5030122;28;20033;-61
2021/10/04 06:02:07;;;;;;;2.80;2.55;;;;;;;;;;5028856;28;20080;-63
2021/10/04 06:04:34;;;;;;;2.03;1.92;;;;;;;;;;5019351;28;20105;-62
2021/10/04 06:07:01;;;;;;;4.13;2.90;;;;;;;;;;5031165;28;20048;-64
2021/10/04 06:09:27;;;;;;;2.20;2.10;;;;;;;;;;5031247;28;20121;-63
2021/10/04 06:11:54;;;;;;;2.38;2.03;;;;;;;;;;5029855;28;20485;-62
2021/10/04 06:14:21;;;;;;;3.22;2.75;;;;;;;;;;5028350;28;20041;-63
2021/10/04 06:16:47;;;;;;;3.67;1.83;;;;;;;;;;5029246;28;20172;-64
2021/10/04 06:19:14;;;;;;;2.55;2.35;;;;;;;;;;5026356;28;20084;-63
2021/10/04 06:21:41;;;;;;;4.07;1.88;;;;;;;;;;5018377;28;20091;-62
2021/10/04 06:24:08;;;;;;;5.20;2.63;;;;;;;;;;5028808;28;20077;-63
2021/10/04 06:26:34;;;;;;;3.63;2.40;;;;;;;;;;5029465;28;20038;-63
2021/10/04 06:29:02;;;;;;;1.77;1.75;;;;;;;;;;5028276;28;20030;-63
2021/10/04 06:31:28;;;;;;;2.10;2.00;;;;;;;;;;5030113;28;20454;-63
2021/10/04 06:33:55;;;;;;;2.28;2.05;;;;;;;;;;5029473;28;20037;-60
2021/10/04 06:36:22;;;;;;;2.10;2.00;;;;;;;;;;5030126;28;20029;-62
2021/10/04 06:38:49;;;;;;;4.10;2.38;;;;;;;;;;5028974;28;20038;-62
2021/10/04 06:41:15;;;;;;;3.35;2.75;;;;;;;;;;5028068;28;20068;-63
2021/10/04 06:43:42;;;;;;;3.47;1.80;;;;;;;;;;5028425;28;20099;-63
2021/10/04 06:46:08;;;;;;;2.72;2.53;;;;;;;;;;5027574;28;20076;-63
2021/10/04 06:48:36;;;;;;;2.40;2.13;;;;;;;;;;5028872;28;20038;-62
2021/10/04 06:51:05;;;;;;;3.67;2.80;;;;;;;;;;5028073;28;20099;-62
2021/10/04 06:53:32;;;;;;;5.18;2.72;;;;;;;;;;5028688;28;20116;-63
2021/10/04 06:56:00;;;;;;;3.10;2.80;;;;;;;;;;5027682;28;20073;-62
2021/10/04 06:58:27;;;;;;;2.35;2.15;;;;;;;;;;5028469;28;20037;-63
2021/10/04 07:00:54;;;;;;;3.47;3.17;;;;;;;;;;5029611;28;20068;-60
2021/10/04 07:03:21;;;;;;;2.20;2.10;;;;;;;;;;5028296;28;20047;-62
2021/10/04 07:05:50;;;;;;;2.22;2.13;;;;;;;;;;5026890;28;20116;-60
2021/10/04 07:08:17;;;;;;;4.28;2.75;;;;;;;;;;5029701;28;20037;-62
2021/10/04 07:10:45;;;;;;;4.25;2.35;;;;;;;;;;5026491;28;20050;-61
2021/10/04 07:13:11;;;;;;;2.78;2.33;;;;;;;;;;5028031;28;20684;-62
2021/10/04 07:15:38;;;;;;;2.05;1.95;;;;;;;;;;5028324;28;20045;-62
2021/10/04 07:18:05;;;;;;;2.88;2.65;;;;;;;;;;5028722;28;20121;-63
2021/10/04 07:20:31;;;;;;;2.80;2.60;;;;;;;;;;5029464;28;20037;-63
2021/10/04 07:22:59;;;;;;;2.72;2.17;;;;;;;;;;5028423;28;20037;-62
2021/10/04 07:25:26;;;;;;;2.53;2.30;;;;;;;;;;5026817;28;20054;-62
2021/10/04 07:27:53;;;;;;;3.08;2.40;;;;;;;;;;5029197;28;20478;-61
2021/10/04 07:30:20;;;;;;;3.92;2.78;;;;;;;;;;5026304;28;20117;-63
2021/10/04 07:32:47;;;;;;;2.92;2.65;;;;;;;;;;5025155;28;20069;-63
2021/10/04 07:35:14;;;;;;;6.18;4.15;;;;;;;;;;5026627;28;20061;-60
2021/10/04 07:37:41;;;;;;;3.17;3.08;;;;;;;;;;5027821;28;20111;-60
2021/10/04 07:40:09;;;;;;;3.13;3.03;;;;;;;;;;5029178;28;20053;-62
2021/10/04 07:42:35;;;;;;;3.30;2.97;;;;;;;;;;5025890;28;20474;-62
2021/10/04 07:45:03;;;;;;;4.22;2.50;;;;;;;;;;5028729;28;20091;-61
2021/10/04 07:47:29;;;;;;;5.38;3.95;;;;;;;;;;5027278;28;20092;-62
2021/10/04 07:49:56;;;;;;;2.78;2.58;;;;;;;;;;5018868;28;20493;-63
2021/10/04 07:52:23;;;;;;;2.97;2.78;;;;;;;;;;5028120;28;20080;-62
2021/10/04 07:54:50;;;;;;;3.65;2.92;;;;;;;;;;5026892;28;20406;-62
2021/10/04 07:57:16;;;;;;;2.70;2.22;;;;;;;;;;5028913;28;20037;-64
2021/10/04 07:59:43;;;;;;;3.30;2.40;;;;;;;;;;5031127;28;20067;-64
2021/10/04 08:02:10;;;;;;;5.18;2.47;;;;;;;;;;5028263;28;20033;-62
2021/10/04 08:04:37;;;;;;;3.28;2.13;;;;;;;;;;5032768;28;20041;-63
2021/10/04 08:07:05;;;;;;;2.75;2.10;;;;;;;;;;5029959;28;20037;-63
2021/10/04 08:09:32;;;;;;;3.83;2.83;;;;;;;;;;5031706;28;20045;-61
2021/10/04 08:11:59;;;;;;;2.78;2.58;;;;;;;;;;5031606;28;20079;-63
2021/10/04 08:14:26;;;;;;;9.07;3.42;;;;;;;;;;5032693;28;20064;-62
2021/10/04 08:16:52;;;;;;;2.92;2.80;;;;;;;;;;5033011;28;20034;-63
2021/10/04 08:19:19;;;;;;;2.42;2.33;;;;;;;;;;5030184;28;20033;-63
2021/10/04 08:21:46;;;;;;;3.03;2.83;;;;;;;;;;5028348;28;20038;-65
2021/10/04 08:24:14;;;;;;;2.33;2.22;;;;;;;;;;5033244;28;20477;-63
2021/10/04 08:26:41;;;;;;;4.35;2.75;;;;;;;;;;5032283;28;20053;-63
2021/10/04 08:29:07;;;;;;;2.22;2.13;;;;;;;;;;5032368;28;20077;-60
2021/10/04 08:31:34;;;;;;;2.67;1.80;;;;;;;;;;5031283;28;20454;-63
2021/10/04 08:34:02;;;;;;;1.67;1.58;;;;;;;;;;5032483;28;20037;-63
2021/10/04 08:36:30;;;;;;;3.40;1.90;;;;;;;;;;5032334;28;20363;-63
2021/10/04 08:38:57;;;;;;;3.95;2.28;;;;;;;;;;5030177;28;20038;-62
2021/10/04 08:41:24;;;;;;;2.90;2.38;;;;;;;;;;5031079;28;20057;-62
2021/10/04 08:43:54;;;;;;;3.20;1.70;;;;;;;;;;5029778;28;20108;-63
2021/10/04 08:46:21;;;;;;;6.13;1.65;;;;;;;;;;5032046;28;20034;-63
2021/10/04 08:48:48;;;;;;;1.67;1.58;;;;;;;;;;5032315;28;20033;-63
2021/10/04 08:51:16;;;;;;;2.80;1.40;;;;;;;;;;5030516;28;20120;-62
2021/10/04 08:53:45;;;;;;;2.30;1.58;;;;;;;;;;5031937;28;20424;-63
2021/10/04 08:56:12;;;;;;;1.88;1.77;;;;;;;;;;5031657;28;20041;-63
2021/10/04 08:58:38;;;;;;;2.45;1.70;;;;;;;;;;5030746;28;20493;-62
2021/10/04 09:01:05;;;;;;;2.05;1.95;;;;;;;;;;5032055;28;20420;-63
2021/10/04 09:03:42;;;;;;;2.60;1.70;;;;;;;;;;5030630;28;20048;-62
2021/10/04 09:06:30;;;;;;;3.38;2.33;;;;;;;;;;5016659;28;20531;-63
2021/10/04 09:09:07;;;;;;;3.92;1.67;;;;;;;;;;5022985;28;20061;-63
2021/10/04 09:11:35;;;;;;;8.20;1.98;;;;;;;;;;5029681;28;20038;-63
2021/10/04 09:14:03;;;;;;;4.45;1.80;;;;;;;;;;5014340;28;20112;-63
2021/10/04 09:16:48;;;;;;;2.00;1.90;;;;;;;;;;5030118;28;20056;-62
2021/10/04 09:19:16;;;;;;;6.10;1.92;;;;;;;;;;5028571;28;20048;-63
2021/10/04 09:21:59;;;;;;;4.10;1.85;;;;;;;;;;5031733;28;20439;-61
2021/10/04 09:24:31;;;;;;;4.20;1.75;;;;;;;;;;5031834;28;20052;-63
2021/10/04 09:26:57;;;;;;;5.40;2.40;;;;;;;;;;5020256;28;20077;-63
2021/10/04 09:29:25;;;;;;;2.13;1.77;;;;;;;;;;5030301;28;20390;-63
2021/10/04 09:31:52;;;;;;;7.35;1.80;;;;;;;;;;5028850;28;20064;-63
2021/10/04 09:34:23;;;;;;;3.92;1.77;;;;;;;;;;5031271;28;20041;-62
2021/10/04 09:36:51;;;;;;;3.55;1.80;;;;;;;;;;5022719;28;20441;-63
2021/10/04 09:39:19;;;;;;;6.03;1.58;;;;;;;;;;5020419;28;20044;-63
2021/10/04 09:42:05;;;;;;;2.15;1.50;;;;;;;;;;5030312;28;20053;-63
2021/10/04 09:44:58;;;;;;;2.85;2.38;;;;;;;;;;5024415;28;20034;-63
2021/10/04 09:47:25;;;;;;;1.83;1.73;;;;;;;;;;5020357;28;20144;-62
2021/10/04 09:49:53;;;;;;;2.33;2.08;;;;;;;;;;5031656;28;20477;-64
2021/10/04 09:52:36;;;;;;;1.80;1.63;;;;;;;;;;5028123;28;20069;-63
2021/10/04 09:55:12;;;;;;;1.80;1.70;;;;;;;;;;5029715;28;20429;-63
2021/10/04 09:57:38;;;;;;;2.05;1.77;;;;;;;;;;5031574;28;20112;-63
2021/10/04 10:00:06;;;;;;;2.28;2.17;;;;;;;;;;5027610;28;20053;-62
2021/10/04 10:02:32;;;;;;;4.53;1.80;;;;;;;;;;5030228;28;20148;-63
2021/10/04 10:05:00;;;;;;;1.63;1.52;;;;;;;;;;5031299;28;20139;-63
2021/10/04 10:07:27;;;;;;;1.63;1.60;;;;;;;;;;5030106;28;20048;-60
2021/10/04 10:09:55;;;;;;;1.45;1.45;;;;;;;;;;5023797;28;20054;-63
2021/10/04 10:12:22;;;;;;;2.92;2.72;;;;;;;;;;5026839;28;20971;-63
2021/10/04 10:14:49;;;;;;;2.03;1.90;;;;;;;;;;5028313;28;20038;-63
2021/10/04 10:17:20;;;;;;;2.50;1.70;;;;;;;;;;5028387;28;20547;-63
2021/10/04 10:19:48;;;;;;;2.17;2.00;;;;;;;;;;5028897;28;20040;-63
2021/10/04 10:22:16;;;;;;;1.70;1.58;;;;;;;;;;5028661;28;20509;-62
2021/10/04 10:24:43;;;;;;;2.25;2.15;;;;;;;;;;5025704;28;20048;-61
2021/10/04 10:27:11;;;;;;;5.07;1.95;;;;;;;;;;5015636;28;20042;-63
2021/10/04 10:29:39;;;;;;;3.30;2.10;;;;;;;;;;5018126;28;20116;-63
2021/10/04 10:32:07;;;;;;;4.32;2.20;;;;;;;;;;5023371;28;20029;-60
2021/10/04 10:34:35;;;;;;;2.78;1.98;;;;;;;;;;5013037;28;20066;-62
2021/10/04 10:37:03;;;;;;;2.35;1.88;;;;;;;;;;5027626;28;20034;-58
2021/10/04 10:39:53;;;;;;;2.00;1.45;;;;;;;;;;5029516;28;20494;-64
2021/10/04 10:42:22;;;;;;;2.42;1.42;;;;;;;;;;5018094;28;20095;-63
2021/10/04 10:44:58;;;;;;;1.17;1.17;;;;;;;;;;5025369;28;20089;-63
2021/10/04 10:47:37;;;;;;;2.20;1.60;;;;;;;;;;5025964;28;20691;-63
2021/10/04 10:50:10;;;;;;;1.58;1.40;;;;;;;;;;5030044;28;20107;-63
2021/10/04 10:52:37;;;;;;;3.70;2.22;;;;;;;;;;5028480;28;20053;-62
2021/10/04 10:55:33;;;;;;;1.95;1.85;;;;;;;;;;5029592;28;20133;-62
2021/10/04 10:58:03;;;;;;;1.20;1.20;;;;;;;;;;5022932;28;20093;-61
2021/10/04 11:00:30;;;;;;;2.25;1.20;;;;;;;;;;5025431;28;20408;-62
2021/10/04 11:02:57;;;;;;;2.55;1.20;;;;;;;;;;5030194;28;20077;-63
2021/10/04 11:05:38;;;;;;;2.22;1.80;;;;;;;;;;5020471;28;20053;-62
2021/10/04 11:08:10;;;;;;;2.30;1.40;;;;;;;;;;5017539;28;20057;-63
2021/10/04 11:10:49;;;;;;;1.10;1.10;;;;;;;;;;5026942;28;20095;-62
2021/10/04 11:13:32;;;;;;;1.40;1.30;;;;;;;;;;5025281;28;20621;-63
2021/10/04 11:16:05;;;;;;;1.38;1.10;;;;;;;;;;5027190;28;20063;-62
2021/10/04 11:18:42;;;;;;;1.88;1.27;;;;;;;;;;5024795;28;20061;-63
2021/10/04 11:21:11;;;;;;;1.15;1.13;;;;;;;;;;5024448;28;20049;-63
2021/10/04 11:23:44;;;;;;;1.23;1.17;;;;;;;;;;5023312;28;20149;-63
2021/10/04 11:26:19;;;;;;;1.05;0.98;;;;;;;;;;5019186;28;20497;-62
2021/10/04 11:28:48;;;;;;;1.20;1.20;;;;;;;;;;5019916;28;20436;-60
2021/10/04 11:31:16;;;;;;;1.10;1.10;;;;;;;;;;5027711;28;20115;-60
2021/10/04 11:33:54;;;;;;;0.90;0.90;;;;;;;;;;5024454;28;20393;-63
2021/10/04 11:36:22;;;;;;;2.38;0.90;;;;;;;;;;5026965;28;20030;-61
2021/10/04 11:38:53;;;;;;;2.33;1.10;;;;;;;;;;5028270;28;20041;-64
2021/10/04 11:41:27;;;;;;;2.53;1.17;;;;;;;;;;5025302;28;20726;-63
2021/10/04 11:43:55;;;;;;;2.40;1.00;;;;;;;;;;5013326;28;20573;-61
2021/10/04 11:46:24;;;;;;;1.00;1.00;;;;;;;;;;5021068;28;20121;-63
2021/10/04 11:49:00;;;;;;;0.98;0.98;;;;;;;;;;5019424;28;20044;-63
2021/10/04 11:51:28;;;;;;;1.42;1.00;;;;;;;;;;5012634;28;20045;-63
2021/10/04 11:53:55;;;;;;;2.45;1.20;;;;;;;;;;5024307;28;20092;-62
2021/10/04 11:56:22;;;;;;;1.00;1.00;;;;;;;;;;5026002;28;20029;-63
2021/10/04 11:58:50;;;;;;;1.00;1.00;;;;;;;;;;5028932;28;20052;-64
2021/10/04 12:01:27;;;;;;;2.05;1.10;;;;;;;;;;5027028;28;20061;-65
2021/10/04 12:04:03;;;;;;;1.70;1.20;;;;;;;;;;5010742;28;20034;-64
2021/10/04 12:06:30;;;;;;;1.45;0.90;;;;;;;;;;5023021;28;20062;-64
2021/10/04 12:08:58;;;;;;;1.13;1.02;;;;;;;;;;5020833;28;20048;-64
2021/10/04 12:11:25;;;;;;;1.95;1.10;;;;;;;;;;5027824;28;20052;-62
2021/10/04 12:13:52;;;;;;;2.15;1.27;;;;;;;;;;5024669;28;20068;-65
2021/10/04 12:16:20;;;;;;;1.00;1.00;;;;;;;;;;5025522;28;20375;-63
2021/10/04 12:18:48;;;;;;;2.50;1.13;;;;;;;;;;5027018;28;21685;-64
2021/10/04 12:21:19;;;;;;;1.75;0.90;;;;;;;;;;5029160;28;20091;-61
2021/10/04 12:24:03;;;;;;;8.40;2.67;;;;;;;;;;5028002;28;20046;-65
2021/10/04 12:26:31;;;;;;;2.25;1.40;;;;;;;;;;5027466;28;20080;-64
2021/10/04 12:28:57;;;;;;;2.05;1.88;;;;;;;;;;5028431;28;20088;-62
2021/10/04 12:31:35;;;;;;;1.75;1.10;;;;;;;;;;5026364;28;20504;-62
2021/10/04 12:34:17;;;;;;;1.05;0.98;;;;;;;;;;5024635;28;20088;-63
2021/10/04 12:36:44;;;;;;;;;;;;;;;;;;5013613;28;21580;-64
2021/10/04 12:39:15;;;;;;;0.90;0.90;;;;;;;;;;5028394;28;19932;-61
2021/10/04 12:41:45;;;;;;;7.55;1.33;;;;;;;;;;5025531;28;20061;-62
2021/10/04 12:44:13;;;;;;;1.50;1.30;;;;;;;;;;5026546;28;20414;-62
2021/10/04 12:46:40;;;;;;;0.98;0.98;;;;;;;;;;5028383;28;20521;-48
2021/10/04 12:49:17;;;;;;;4.63;1.30;;;;;;;;;;5028064;28;20073;-46
2021/10/04 12:51:48;;;;;;;2.72;0.90;;;;;;;;;;5031078;28;20041;-48
2021/10/04 12:54:15;;;;;;;1.00;0.90;;;;;;;;;;5031038;28;20110;-47
2021/10/04 12:56:50;;;;;;;1.10;0.90;;;;;;;;;;5031538;28;20049;-49
2021/10/04 12:59:16;;;;;;;1.15;0.90;;;;;;;;;;5030190;28;20424;-50
2021/10/04 13:01:50;;;;;;;3.80;1.10;;;;;;;;;;5031780;28;20071;-50
2021/10/04 13:04:38;;;;;;;3.95;1.52;;;;;;;;;;5031308;28;20033;-48
2021/10/04 13:07:05;;;;;;;1.40;1.30;;;;;;;;;;5027202;28;20073;-49
2021/10/04 13:09:33;;;;;;;0.90;0.90;;;;;;;;;;5023368;28;20045;-51
2021/10/04 13:11:59;;;;;;;2.35;1.20;;;;;;;;;;5030203;28;20418;-50
2021/10/04 13:14:26;;;;;;;1.27;1.20;;;;;;;;;;5027832;28;20045;-47
2021/10/04 13:16:54;;;;;;;1.42;1.20;;;;;;;;;;5030888;28;20053;-47
2021/10/04 13:19:22;;;;;;;1.98;1.10;;;;;;;;;;5029397;28;20589;-50
2021/10/04 13:21:50;;;;;;;1.10;1.00;;;;;;;;;;5030096;28;20041;-50
2021/10/04 13:24:17;;;;;;;4.10;1.10;;;;;;;;;;5021349;28;20436;-49
2021/10/04 13:26:44;;;;;;;4.78;1.15;;;;;;;;;;5029734;28;20056;-49
2021/10/04 13:29:12;;;;;;;0.95;0.90;;;;;;;;;;5030519;28;20095;-51
2021/10/04 13:31:39;;;;;;;2.63;1.00;;;;;;;;;;5024335;28;20115;-49
2021/10/04 13:34:09;;;;;;;1.75;1.00;;;;;;;;;;5020777;28;20041;-50
2021/10/04 13:36:35;;;;;;;1.10;1.00;;;;;;;;;;5016675;28;20045;-48
2021/10/04 13:39:06;;;;;;;1.30;0.95;;;;;;;;;;5029595;28;20117;-48
2021/10/04 13:41:34;;;;;;;4.28;1.50;;;;;;;;;;5028668;28;20441;-51
2021/10/04 13:44:00;;;;;;;1.45;1.40;;;;;;;;;;5031215;28;20478;-51
2021/10/04 13:46:27;;;;;;;1.58;1.27;;;;;;;;;;5030641;28;20824;-50
2021/10/04 13:48:54;;;;;;;4.80;1.40;;;;;;;;;;5031669;28;20096;-49
2021/10/04 13:51:21;;;;;;;2.65;1.52;;;;;;;;;;5028072;28;20037;-49
2021/10/04 13:53:51;;;;;;;2.72;1.63;;;;;;;;;;5032223;28;20125;-49
2021/10/04 13:56:19;;;;;;;2.50;2.10;;;;;;;;;;5029762;28;20061;-48
2021/10/04 13:58:46;;;;;;;1.75;1.50;;;;;;;;;;5029232;28;20041;-48
2021/10/04 14:01:13;;;;;;;4.32;3.00;;;;;;;;;;5030794;28;20041;-50
2021/10/04 14:03:40;;;;;;;1.42;1.33;;;;;;;;;;5029366;28;20092;-50
2021/10/04 14:06:07;;;;;;;2.30;2.10;;;;;;;;;;5029426;28;20425;-48
2021/10/04 14:08:34;;;;;;;3.08;1.65;;;;;;;;;;5030189;28;20046;-49
2021/10/04 14:11:01;;;;;;;1.95;1.20;;;;;;;;;;5028671;28;20033;-49
2021/10/04 14:13:27;;;;;;;0.90;0.90;;;;;;;;;;5029702;28;20049;-47
2021/10/04 14:15:54;;;;;;;2.20;1.02;;;;;;;;;;5030268;28;20528;-50
2021/10/04 14:18:21;;;;;;;1.90;1.20;;;;;;;;;;5029817;28;20034;-50
2021/10/04 14:20:51;;;;;;;5.30;3.35;;;;;;;;;;5030958;28;20099;-48
2021/10/04 14:23:18;;;;;;;4.25;3.65;;;;;;;;;;5026964;28;20037;-46
2021/10/04 14:25:45;;;;;;;3.83;3.53;;;;;;;;;;5021631;28;20597;-46
2021/10/04 14:28:11;;;;;;;2.03;1.88;;;;;;;;;;5031288;28;20528;-49
2021/10/04 14:30:38;;;;;;;5.50;2.58;;;;;;;;;;5028738;28;20448;-47
2021/10/04 14:33:09;;;;;;;3.22;2.92;;;;;;;;;;5030140;28;20060;-48
2021/10/04 14:35:37;;;;;;;2.33;2.13;;;;;;;;;;5028288;28;20056;-48
2021/10/04 14:38:04;;;;;;;3.15;2.85;;;;;;;;;;5029879;28;20045;-47
2021/10/04 14:40:32;;;;;;;3.13;2.10;;;;;;;;;;5028566;28;20048;-47
2021/10/04 14:42:58;;;;;;;1.90;1.40;;;;;;;;;;5028743;28;20436;-45
2021/10/04 14:45:25;;;;;;;1.42;1.33;;;;;;;;;;5014688;28;20062;-46
2021/10/04 14:47:52;;;;;;;1.90;1.00;;;;;;;;;;5030294;28;20080;-47
2021/10/04 14:50:19;;;;;;;1.83;0.90;;;;;;;;;;5029218;28;20087;-47